Time;durP1;ratioP1;P1;durP2;ratioP2;P2;SDS_P1;SDS_P2;PMS_P1;PMS_P2;Temp;Humidity;BMP_temperature;BMP_pressure;BME280_temperature;BME280_humidity;BME280_pressure;Samples;Min_cycle;Max_cycle;Signal;HPM_P1;HPM_P2
2021/03/17 00:00:28;;;;;;;4.00;0.97;;;19.80;44.10;;;;;;5044930;28;20497;-72
2021/03/17 00:02:55;;;;;;;2.90;1.00;;;19.70;44.10;;;;;;5056830;28;20500;-72
2021/03/17 00:05:23;;;;;;;1.40;1.00;;;19.70;44.10;;;;;;5059795;28;20506;-72
2021/03/17 00:07:50;;;;;;;1.73;0.80;;;19.70;44.20;;;;;;5069674;28;21288;-71
2021/03/17 00:10:17;;;;;;;1.37;1.27;;;19.60;44.10;;;;;;5058299;28;20559;-71
2021/03/17 00:12:43;;;;;;;1.03;0.60;;;19.60;44.00;;;;;;5031693;28;21065;-71
2021/03/17 00:15:10;;;;;;;1.77;0.80;;;19.60;43.90;;;;;;5042442;28;20495;-72
2021/03/17 00:17:36;;;;;;;2.17;1.10;;;19.70;44.00;;;;;;5079250;28;20535;-72
2021/03/17 00:20:05;;;;;;;0.93;0.83;;;19.60;44.00;;;;;;5054381;28;20557;-72
2021/03/17 00:22:31;;;;;;;0.73;0.70;;;19.60;44.00;;;;;;5053609;28;20496;-72
2021/03/17 00:24:57;;;;;;;2.13;1.20;;;19.60;43.90;;;;;;5052391;28;20485;-71
2021/03/17 00:27:23;;;;;;;1.90;1.20;;;19.60;43.90;;;;;;5052035;28;20480;-71
2021/03/17 00:29:50;;;;;;;5.10;1.60;;;19.60;43.90;;;;;;5041975;28;20559;-72
2021/03/17 00:32:16;;;;;;;1.10;1.10;;;19.50;43.90;;;;;;5057812;28;20490;-72
2021/03/17 00:34:43;;;;;;;2.93;0.90;;;19.60;44.00;;;;;;5050985;28;20498;-72
2021/03/17 00:37:10;;;;;;;1.30;0.87;;;19.50;43.90;;;;;;5039836;28;21179;-72
2021/03/17 00:39:36;;;;;;;1.13;1.03;;;19.60;43.90;;;;;;5019737;28;20521;-71
2021/03/17 00:42:02;;;;;;;0.70;0.70;;;19.60;43.80;;;;;;5051326;28;21513;-71
2021/03/17 00:44:28;;;;;;;1.13;0.80;;;19.60;43.80;;;;;;5052737;28;20565;-72
2021/03/17 00:46:54;;;;;;;1.90;1.00;;;19.60;43.70;;;;;;5069168;28;20485;-72
2021/03/17 00:49:20;;;;;;;1.13;1.00;;;19.60;43.70;;;;;;5044828;28;20484;-71
2021/03/17 00:51:46;;;;;;;0.80;0.80;;;19.60;43.70;;;;;;5057329;28;20917;-72
2021/03/17 00:54:14;;;;;;;1.63;1.07;;;19.60;43.60;;;;;;5050928;28;20493;-70
2021/03/17 00:56:40;;;;;;;0.67;0.67;;;19.60;43.50;;;;;;5036378;28;20489;-72
2021/03/17 00:59:06;;;;;;;1.10;0.80;;;19.60;43.50;;;;;;5037440;28;20505;-74
2021/03/17 01:01:32;;;;;;;1.63;1.27;;;19.60;43.50;;;;;;5053937;28;20485;-71
2021/03/17 01:03:58;;;;;;;1.27;0.80;;;19.60;43.50;;;;;;5052774;28;20489;-72
2021/03/17 01:06:25;;;;;;;1.73;0.70;;;19.60;43.40;;;;;;5055492;28;20515;-72
2021/03/17 01:08:51;;;;;;;0.80;0.77;;;19.50;43.30;;;;;;5038968;28;21753;-72
2021/03/17 01:11:18;;;;;;;1.23;0.87;;;19.60;43.50;;;;;;5021030;28;20553;-70
2021/03/17 01:13:44;;;;;;;0.70;0.70;;;19.50;43.40;;;;;;5062707;28;21370;-71
2021/03/17 01:16:10;;;;;;;1.83;1.20;;;19.50;43.20;;;;;;5064798;28;21039;-72
2021/03/17 01:18:36;;;;;;;0.97;0.97;;;19.50;43.20;;;;;;5076487;28;20493;-72
2021/03/17 01:21:02;;;;;;;0.70;0.70;;;19.50;43.20;;;;;;5066911;28;20478;-72
2021/03/17 01:23:28;;;;;;;3.00;1.10;;;19.50;43.10;;;;;;5044418;28;20481;-71
2021/03/17 01:25:54;;;;;;;1.97;0.80;;;19.50;43.00;;;;;;5040569;28;20585;-72
2021/03/17 01:28:21;;;;;;;1.00;0.90;;;19.50;43.10;;;;;;5057291;28;20676;-71
2021/03/17 01:30:49;;;;;;;0.83;0.80;;;19.50;43.00;;;;;;5049259;28;20493;-71
2021/03/17 01:33:15;;;;;;;1.00;0.90;;;19.50;43.00;;;;;;5062870;28;20486;-71
2021/03/17 01:35:42;;;;;;;5.80;1.07;;;19.50;43.00;;;;;;5042120;28;20485;-71
2021/03/17 01:38:08;;;;;;;1.30;0.80;;;19.50;42.90;;;;;;5027900;28;20492;-71
2021/03/17 01:40:35;;;;;;;1.60;1.00;;;19.50;42.90;;;;;;5070109;28;20478;-71
2021/03/17 01:43:01;;;;;;;2.20;1.00;;;19.50;42.80;;;;;;5041656;28;20471;-71
2021/03/17 01:45:28;;;;;;;2.40;0.73;;;19.50;42.70;;;;;;5047860;28;20541;-72
2021/03/17 01:47:54;;;;;;;1.53;0.80;;;19.50;42.60;;;;;;5044399;28;20470;-72
2021/03/17 01:50:22;;;;;;;2.33;0.93;;;19.50;42.60;;;;;;5044465;28;20485;-72
2021/03/17 01:52:48;;;;;;;1.40;0.80;;;19.60;42.70;;;;;;5044662;28;20491;-72
2021/03/17 01:55:15;;;;;;;2.57;0.80;;;19.50;42.50;;;;;;5031116;28;20485;-71
2021/03/17 01:57:41;;;;;;;4.00;1.20;;;19.50;42.50;;;;;;5031619;28;20497;-72
2021/03/17 02:00:09;;;;;;;0.80;0.80;;;19.50;42.50;;;;;;5061713;28;20478;-72
2021/03/17 02:02:36;;;;;;;2.90;0.90;;;19.50;42.40;;;;;;5056117;28;20567;-71
2021/03/17 02:05:05;;;;;;;1.27;1.17;;;19.60;42.40;;;;;;5066271;28;20950;-70
2021/03/17 02:07:31;;;;;;;0.70;0.57;;;19.60;42.40;;;;;;5044870;28;20499;-72
2021/03/17 02:09:57;;;;;;;0.73;0.70;;;19.60;42.30;;;;;;5059673;28;20500;-72
2021/03/17 02:12:31;;;;;;;2.20;0.70;;;19.60;42.40;;;;;;5038140;28;20498;-70
2021/03/17 02:15:05;;;;;;;1.90;0.80;;;19.60;42.30;;;;;;5043840;28;20480;-72
2021/03/17 02:17:31;;;;;;;0.90;0.70;;;19.60;42.30;;;;;;5048516;28;20488;-71
2021/03/17 02:20:38;;;;;;;3.90;1.10;;;19.60;42.30;;;;;;5055652;28;20481;-71
2021/03/17 02:23:09;;;;;;;2.47;1.03;;;19.50;42.20;;;;;;5061404;28;20582;-71
2021/03/17 02:26:07;;;;;;;0.93;0.70;;;19.50;42.20;;;;;;5046558;28;20473;-71
2021/03/17 02:28:55;;;;;;;2.80;0.90;;;19.50;42.10;;;;;;5055776;28;20516;-71
2021/03/17 02:31:29;;;;;;;1.93;1.00;;;19.50;42.10;;;;;;5058333;28;20586;-72
2021/03/17 02:33:58;;;;;;;1.57;0.73;;;19.50;42.10;;;;;;5046374;28;20478;-71
2021/03/17 02:36:27;;;;;;;2.73;0.90;;;19.50;42.10;;;;;;5055708;28;21059;-71
2021/03/17 02:38:54;;;;;;;2.87;0.80;;;19.50;42.10;;;;;;5060232;28;20551;-70
2021/03/17 02:41:23;;;;;;;1.70;0.80;;;19.50;42.10;;;;;;5055054;28;20497;-70
2021/03/17 02:43:52;;;;;;;1.37;1.27;;;19.50;42.10;;;;;;5054244;28;20480;-70
2021/03/17 02:46:19;;;;;;;1.00;0.70;;;19.50;42.10;;;;;;5054604;28;20485;-70
2021/03/17 02:48:46;;;;;;;5.50;1.07;;;19.50;42.00;;;;;;5069503;28;20497;-70
2021/03/17 02:51:21;;;;;;;1.30;0.60;;;19.50;41.90;;;;;;5053385;28;20485;-71
2021/03/17 02:53:47;;;;;;;0.80;0.80;;;19.50;42.00;;;;;;5042448;28;20587;-71
2021/03/17 02:56:14;;;;;;;1.77;1.10;;;19.50;41.80;;;;;;5048193;28;20494;-70
2021/03/17 02:58:43;;;;;;;1.10;1.00;;;19.50;41.80;;;;;;5044579;28;20485;-72
2021/03/17 03:01:09;;;;;;;2.30;0.80;;;19.50;41.70;;;;;;5033774;28;20481;-71
2021/03/17 03:03:35;;;;;;;2.67;0.80;;;19.50;41.70;;;;;;5054922;28;20487;-71
2021/03/17 03:06:03;;;;;;;3.90;0.70;;;19.60;41.70;;;;;;5053556;28;20569;-72
2021/03/17 03:08:30;;;;;;;1.17;0.90;;;19.60;41.60;;;;;;5064966;28;20942;-71
2021/03/17 03:10:56;;;;;;;3.07;0.83;;;19.60;41.60;;;;;;5060104;28;20482;-72
2021/03/17 03:13:24;;;;;;;1.07;0.80;;;19.60;41.70;;;;;;5040513;28;20493;-71
2021/03/17 03:15:50;;;;;;;1.07;0.57;;;19.50;41.60;;;;;;5055183;28;20524;-71
2021/03/17 03:18:16;;;;;;;0.60;0.50;;;19.50;41.60;;;;;;5040891;28;20619;-72
2021/03/17 03:20:43;;;;;;;2.43;0.67;;;19.50;41.60;;;;;;5051656;28;20634;-72
2021/03/17 03:23:09;;;;;;;2.20;0.83;;;19.50;41.60;;;;;;5067314;28;20485;-71
2021/03/17 03:25:36;;;;;;;2.60;1.00;;;19.50;41.60;;;;;;5049490;28;20473;-71
2021/03/17 03:28:11;;;;;;;2.67;0.90;;;19.50;41.60;;;;;;5048879;28;20474;-72
2021/03/17 03:30:38;;;;;;;2.60;0.80;;;19.50;41.60;;;;;;5050080;28;20562;-71
2021/03/17 03:33:04;;;;;;;1.07;0.70;;;19.50;41.60;;;;;;5039876;28;20564;-71
2021/03/17 03:35:31;;;;;;;1.23;0.67;;;19.40;41.60;;;;;;5053523;28;20470;-71
2021/03/17 03:37:57;;;;;;;1.33;0.70;;;19.40;41.60;;;;;;5058617;28;20469;-71
2021/03/17 03:40:23;;;;;;;2.80;1.07;;;19.40;41.60;;;;;;5045543;27;20474;-71
2021/03/17 03:42:50;;;;;;;2.53;0.60;;;19.40;41.70;;;;;;5073629;28;20551;-71
2021/03/17 03:45:17;;;;;;;4.67;1.03;;;19.40;41.60;;;;;;5064332;28;21614;-72
2021/03/17 03:47:44;;;;;;;1.27;0.70;;;19.40;41.60;;;;;;5061933;28;20476;-70
2021/03/17 03:50:12;;;;;;;2.00;0.80;;;19.40;41.50;;;;;;5063782;28;20491;-71
2021/03/17 03:52:41;;;;;;;0.80;0.70;;;19.50;41.50;;;;;;5046434;28;20507;-71
2021/03/17 03:55:11;;;;;;;0.70;0.60;;;19.50;41.50;;;;;;5044854;28;20851;-71
2021/03/17 03:57:39;;;;;;;1.30;1.00;;;19.50;41.50;;;;;;5039940;28;20473;-71
2021/03/17 04:00:07;;;;;;;1.17;0.90;;;19.50;41.50;;;;;;5065734;28;20470;-71
2021/03/17 04:02:37;;;;;;;0.60;0.57;;;19.50;41.50;;;;;;5043224;28;21043;-71
2021/03/17 04:05:03;;;;;;;1.30;1.20;;;19.50;41.40;;;;;;5063498;28;20493;-70
2021/03/17 04:07:29;;;;;;;1.70;1.13;;;19.50;41.40;;;;;;5053025;28;20504;-71
2021/03/17 04:09:56;;;;;;;2.07;1.13;;;19.50;41.20;;;;;;5048399;28;20488;-71
2021/03/17 04:12:23;;;;;;;3.43;1.20;;;19.50;41.20;;;;;;5022152;28;20498;-71
2021/03/17 04:14:50;;;;;;;5.30;0.90;;;19.50;40.80;;;;;;5067084;28;20474;-71
2021/03/17 04:17:19;;;;;;;1.20;0.90;;;19.50;40.60;;;;;;5039414;28;20516;-71
2021/03/17 04:19:45;;;;;;;1.23;0.80;;;19.50;40.40;;;;;;5053079;28;21874;-72
2021/03/17 04:22:12;;;;;;;0.97;0.90;;;19.50;40.20;;;;;;5050067;28;20492;-72
2021/03/17 04:24:39;;;;;;;1.47;1.03;;;19.60;40.30;;;;;;5069726;28;20474;-72
2021/03/17 04:27:06;;;;;;;1.10;0.90;;;19.60;40.40;;;;;;5048920;28;20485;-72
2021/03/17 04:29:32;;;;;;;1.90;0.90;;;19.60;40.40;;;;;;5071239;28;20537;-71
2021/03/17 04:31:58;;;;;;;2.93;1.10;;;19.60;40.30;;;;;;5055454;28;20863;-72
2021/03/17 04:34:25;;;;;;;1.20;0.97;;;19.60;40.20;;;;;;5066433;28;21297;-72
2021/03/17 04:36:51;;;;;;;2.20;1.20;;;19.60;40.30;;;;;;5055542;28;20531;-71
2021/03/17 04:39:17;;;;;;;5.03;1.23;;;19.60;40.30;;;;;;5055079;28;20493;-71
2021/03/17 04:41:44;;;;;;;2.00;0.93;;;19.60;40.40;;;;;;5051260;28;20482;-71
2021/03/17 04:44:10;;;;;;;1.27;0.80;;;19.60;40.40;;;;;;5050830;28;20512;-72
2021/03/17 04:46:36;;;;;;;1.03;0.63;;;19.60;40.50;;;;;;5059063;28;21048;-71
2021/03/17 04:49:02;;;;;;;0.70;0.70;;;19.60;40.10;;;;;;5057327;28;20485;-71
2021/03/17 04:51:29;;;;;;;1.23;1.13;;;19.60;40.20;;;;;;5056352;28;20543;-71
2021/03/17 04:53:55;;;;;;;0.90;0.90;;;19.50;40.20;;;;;;5056033;28;20499;-72
2021/03/17 04:56:21;;;;;;;2.07;0.90;;;19.60;40.20;;;;;;5067260;28;20485;-71
2021/03/17 04:58:47;;;;;;;2.27;1.33;;;19.60;40.20;;;;;;5054736;28;20480;-71
2021/03/17 05:01:14;;;;;;;2.10;0.93;;;19.50;40.20;;;;;;5042015;28;20489;-71
2021/03/17 05:03:40;;;;;;;4.53;1.20;;;19.50;40.30;;;;;;5039438;28;20515;-71
2021/03/17 05:06:06;;;;;;;1.00;0.63;;;19.50;40.40;;;;;;5075484;28;20485;-71
2021/03/17 05:08:33;;;;;;;2.27;0.83;;;19.50;40.50;;;;;;5072640;28;20495;-71
2021/03/17 05:11:00;;;;;;;2.30;1.07;;;19.40;40.50;;;;;;5057503;28;20482;-71
2021/03/17 05:13:29;;;;;;;1.00;1.00;;;19.40;40.50;;;;;;5061017;28;20492;-71
2021/03/17 05:15:55;;;;;;;2.43;0.83;;;19.30;40.30;;;;;;5061353;28;20492;-71
2021/03/17 05:18:21;;;;;;;0.80;0.70;;;19.40;40.50;;;;;;5042976;28;20489;-71
2021/03/17 05:20:49;;;;;;;1.30;0.90;;;19.40;40.50;;;;;;5065736;28;21402;-71
2021/03/17 05:23:17;;;;;;;1.43;1.10;;;19.30;40.30;;;;;;5053603;28;20481;-71
2021/03/17 05:25:44;;;;;;;1.63;1.27;;;19.30;40.20;;;;;;5053639;28;21064;-71
2021/03/17 05:28:11;;;;;;;2.20;0.90;;;19.40;40.20;;;;;;5050863;28;20489;-71
2021/03/17 05:30:38;;;;;;;0.70;0.70;;;19.40;40.10;;;;;;5054501;28;20492;-71
2021/03/17 05:33:06;;;;;;;3.03;0.80;;;19.40;40.10;;;;;;5054405;28;20485;-71
2021/03/17 05:35:33;;;;;;;2.20;1.10;;;19.40;39.90;;;;;;5057104;28;20578;-71
2021/03/17 05:37:59;;;;;;;2.03;1.40;;;19.50;40.10;;;;;;5053428;28;20501;-72
2021/03/17 05:40:25;;;;;;;0.80;0.80;;;19.50;40.00;;;;;;5057094;28;20846;-71
2021/03/17 05:42:52;;;;;;;2.83;1.27;;;19.50;39.80;;;;;;5055819;28;20489;-72
2021/03/17 05:45:19;;;;;;;0.70;0.70;;;19.50;39.90;;;;;;5053803;28;20481;-71
2021/03/17 05:47:46;;;;;;;1.80;0.87;;;19.50;40.00;;;;;;5057597;28;20474;-71
2021/03/17 05:50:13;;;;;;;1.00;1.00;;;19.50;40.00;;;;;;5033726;28;20490;-71
2021/03/17 05:52:40;;;;;;;1.17;0.70;;;19.50;39.70;;;;;;5033105;28;20474;-72
2021/03/17 05:55:07;;;;;;;1.97;0.83;;;19.50;39.60;;;;;;5046593;28;20499;-71
2021/03/17 05:57:33;;;;;;;2.67;0.73;;;19.50;39.50;;;;;;5055082;28;21350;-72
2021/03/17 06:00:00;;;;;;;1.03;0.93;;;19.40;39.80;;;;;;5041594;28;21120;-72
2021/03/17 06:02:26;;;;;;;0.80;0.80;;;19.40;39.70;;;;;;5051835;28;20473;-73
2021/03/17 06:04:52;;;;;;;4.10;1.10;;;19.30;39.60;;;;;;5043526;28;20482;-73
2021/03/17 06:07:22;;;;;;;2.63;1.20;;;19.40;39.90;;;;;;5062984;28;20489;-72
2021/03/17 06:09:48;;;;;;;3.50;1.00;;;19.40;40.10;;;;;;5060818;28;20497;-71
2021/03/17 06:12:14;;;;;;;1.43;1.20;;;19.40;39.50;;;;;;5041996;28;20517;-71
2021/03/17 06:14:40;;;;;;;1.03;0.90;;;19.50;40.60;;;;;;5039923;28;20481;-72
2021/03/17 06:17:09;;;;;;;1.20;1.10;;;19.50;40.10;;;;;;5043766;28;21089;-72
2021/03/17 06:19:35;;;;;;;0.93;0.80;;;19.50;39.80;;;;;;5052031;28;21052;-72
2021/03/17 06:22:01;;;;;;;2.63;1.33;;;19.60;39.40;;;;;;5053162;28;20481;-72
2021/03/17 06:24:27;;;;;;;2.30;1.33;;;19.60;39.10;;;;;;5055438;28;20501;-72
2021/03/17 06:26:53;;;;;;;4.40;1.50;;;19.60;38.90;;;;;;5049771;28;20490;-72
2021/03/17 06:29:19;;;;;;;3.50;2.00;;;19.50;39.00;;;;;;5045400;28;20482;-71
2021/03/17 06:31:46;;;;;;;1.90;1.40;;;19.40;39.00;;;;;;5054325;28;20502;-72
2021/03/17 06:34:13;;;;;;;3.80;0.90;;;19.30;39.00;;;;;;5049119;28;20482;-72
2021/03/17 06:36:47;;;;;;;1.70;0.80;;;19.30;38.80;;;;;;5051790;28;20486;-72
2021/03/17 06:39:13;;;;;;;1.40;1.30;;;19.20;38.60;;;;;;5038120;28;21403;-72
2021/03/17 06:41:44;;;;;;;2.57;1.00;;;19.30;39.70;;;;;;5072842;28;20469;-73
2021/03/17 06:44:10;;;;;;;2.10;1.30;;;19.40;39.50;;;;;;5076579;28;20531;-73
2021/03/17 06:46:37;;;;;;;4.73;1.50;;;19.50;39.30;;;;;;5046957;28;20485;-73
2021/03/17 06:49:03;;;;;;;1.43;1.33;;;19.50;39.10;;;;;;5050492;28;20469;-72
2021/03/17 06:51:31;;;;;;;3.07;1.10;;;19.50;38.90;;;;;;5046000;28;20550;-72
2021/03/17 06:53:57;;;;;;;2.67;1.23;;;19.50;38.90;;;;;;5043028;28;20547;-72
2021/03/17 06:56:26;;;;;;;1.53;1.43;;;19.60;38.90;;;;;;5045101;28;20489;-73
2021/03/17 06:58:53;;;;;;;1.60;1.50;;;19.60;38.90;;;;;;5042905;28;20498;-73
2021/03/17 07:01:26;;;;;;;1.73;1.00;;;19.60;38.80;;;;;;5060763;28;20472;-72
2021/03/17 07:03:55;;;;;;;6.40;1.53;;;19.60;38.80;;;;;;5043353;28;20477;-73
2021/03/17 07:06:21;;;;;;;1.33;0.80;;;19.60;38.90;;;;;;5046107;28;20478;-73
2021/03/17 07:08:48;;;;;;;6.63;1.57;;;19.60;38.90;;;;;;5038760;28;20474;-73
2021/03/17 07:11:21;;;;;;;1.70;1.00;;;19.50;38.90;;;;;;5046303;28;20497;-73
2021/03/17 07:13:53;;;;;;;1.83;1.37;;;19.50;39.20;;;;;;5024445;28;20470;-72
2021/03/17 07:16:28;;;;;;;0.90;0.90;;;19.50;39.30;;;;;;5048314;28;20477;-73
2021/03/17 07:18:54;;;;;;;3.97;1.10;;;19.50;39.50;;;;;;5059682;28;20471;-72
2021/03/17 07:21:21;;;;;;;1.77;1.00;;;19.50;40.30;;;;;;5053047;28;20493;-72
2021/03/17 07:23:48;;;;;;;1.33;1.10;;;19.50;39.50;;;;;;5051577;28;20486;-72
2021/03/17 07:26:21;;;;;;;1.10;1.00;;;19.40;39.60;;;;;;5037795;28;20551;-70
2021/03/17 07:28:52;;;;;;;4.70;1.03;;;19.40;39.70;;;;;;5047833;28;20566;-72
2021/03/17 07:31:19;;;;;;;1.80;0.90;;;19.30;39.70;;;;;;5046262;28;20485;-71
2021/03/17 07:33:45;;;;;;;1.90;1.20;;;19.30;39.80;;;;;;5034259;28;20481;-72
2021/03/17 07:36:11;;;;;;;4.10;1.50;;;19.30;39.90;;;;;;5046612;28;20538;-73
2021/03/17 07:38:38;;;;;;;4.90;1.10;;;19.30;40.00;;;;;;5033627;28;21064;-72
2021/03/17 07:41:05;;;;;;;1.00;1.00;;;19.30;40.10;;;;;;5049763;28;20474;-71
2021/03/17 07:43:31;;;;;;;4.30;1.50;;;19.30;40.10;;;;;;5057682;28;20461;-72
2021/03/17 07:45:58;;;;;;;2.13;0.90;;;19.30;40.60;;;;;;5045758;28;20481;-71
2021/03/17 07:48:24;;;;;;;3.10;1.40;;;19.30;40.20;;;;;;5052442;28;20495;-72
2021/03/17 07:50:51;;;;;;;1.07;0.73;;;19.30;40.20;;;;;;5040442;28;20489;-76
2021/03/17 07:53:20;;;;;;;0.90;0.80;;;19.30;40.70;;;;;;5034016;28;20518;-76
2021/03/17 07:55:46;;;;;;;1.20;1.03;;;19.40;40.80;;;;;;5048599;28;21016;-76
2021/03/17 07:58:13;;;;;;;3.90;1.47;;;19.40;41.10;;;;;;5052693;28;20534;-78
2021/03/17 08:00:39;;;;;;;1.53;1.37;;;19.40;41.80;;;;;;5040500;28;20466;-76
2021/03/17 08:03:06;;;;;;;1.43;1.33;;;19.40;42.50;;;;;;5040199;28;20489;-76
2021/03/17 08:05:32;;;;;;;2.73;1.43;;;19.40;42.30;;;;;;5031462;28;20481;-75
2021/03/17 08:07:58;;;;;;;5.33;1.87;;;19.40;42.70;;;;;;5069650;28;21195;-76
2021/03/17 08:10:24;;;;;;;3.00;1.30;;;19.40;43.20;;;;;;5049584;28;21008;-76
2021/03/17 08:12:51;;;;;;;5.07;1.13;;;19.40;43.50;;;;;;5036808;28;20513;-75
2021/03/17 08:15:18;;;;;;;1.40;1.20;;;19.40;43.40;;;;;;5054394;28;20500;-75
2021/03/17 08:17:44;;;;;;;4.93;1.10;;;19.40;44.20;;;;;;5065385;28;20501;-75
2021/03/17 08:20:17;;;;;;;3.67;1.60;;;19.30;43.60;;;;;;5028795;28;21057;-75
2021/03/17 08:22:44;;;;;;;1.47;1.17;;;19.30;43.70;;;;;;5078242;28;20484;-75
2021/03/17 08:25:11;;;;;;;2.50;1.13;;;19.40;43.90;;;;;;5044639;28;20480;-75
2021/03/17 08:27:37;;;;;;;3.73;1.50;;;19.40;44.10;;;;;;5052390;28;20505;-74
2021/03/17 08:30:14;;;;;;;3.93;1.00;;;19.30;44.40;;;;;;5042965;28;20480;-74
2021/03/17 08:33:05;;;;;;;3.40;1.03;;;19.30;45.00;;;;;;5029275;28;20485;-75
2021/03/17 08:35:59;;;;;;;1.93;1.70;;;19.40;44.20;;;;;;5045085;28;20915;-75
2021/03/17 08:38:49;;;;;;;5.50;1.67;;;19.50;44.30;;;;;;5043514;28;20493;-76
2021/03/17 08:41:16;;;;;;;6.33;2.43;;;19.50;44.60;;;;;;5066717;28;20497;-76
2021/03/17 08:43:46;;;;;;;1.83;1.10;;;19.50;46.10;;;;;;5039196;28;20484;-75
2021/03/17 08:46:13;;;;;;;8.90;1.37;;;19.60;45.60;;;;;;5037613;28;20482;-75
2021/03/17 08:48:59;;;;;;;1.03;1.03;;;19.60;45.70;;;;;;5039918;28;20488;-76
2021/03/17 08:52:05;;;;;;;6.73;2.10;;;19.60;46.30;;;;;;5022593;28;21007;-76
2021/03/17 08:54:53;;;;;;;1.00;0.87;;;19.50;45.20;;;;;;5054434;28;20839;-75
2021/03/17 08:57:20;;;;;;;3.63;1.00;;;19.50;46.20;;;;;;5028335;28;20473;-75
2021/03/17 08:59:46;;;;;;;1.53;0.80;;;19.50;46.20;;;;;;5048198;28;20485;-75
2021/03/17 09:02:37;;;;;;;2.93;0.90;;;19.50;46.50;;;;;;5064535;28;20472;-75
2021/03/17 09:05:04;;;;;;;1.00;1.00;;;19.40;46.60;;;;;;5046838;28;20466;-76
2021/03/17 09:07:31;;;;;;;1.97;0.93;;;19.30;48.50;;;;;;5050590;28;20475;-75
2021/03/17 09:09:58;;;;;;;1.40;1.30;;;19.30;47.40;;;;;;5058087;28;20470;-75
2021/03/17 09:12:45;;;;;;;2.60;1.20;;;19.30;47.60;;;;;;5028626;28;20495;-76
2021/03/17 09:15:15;;;;;;;1.37;1.23;;;19.30;48.40;;;;;;5018853;28;20504;-75
2021/03/17 09:17:43;;;;;;;1.87;1.70;;;19.30;48.70;;;;;;5050804;28;20479;-75
2021/03/17 09:20:31;;;;;;;1.00;1.00;;;19.20;49.50;;;;;;5066431;28;20500;-75
2021/03/17 09:23:02;;;;;;;1.30;1.20;;;19.20;50.50;;;;;;5047187;28;20482;-74
2021/03/17 09:25:30;;;;;;;1.47;1.13;;;19.20;49.80;;;;;;5028285;28;20635;-75
2021/03/17 09:28:03;;;;;;;2.50;1.30;;;19.20;51.10;;;;;;5049132;28;20486;-75
2021/03/17 09:30:32;;;;;;;1.40;1.33;;;19.30;49.10;;;;;;5068908;28;20899;-74
2021/03/17 09:33:04;;;;;;;1.57;0.80;;;19.30;48.50;;;;;;5065304;28;20485;-74
2021/03/17 09:35:31;;;;;;;1.10;1.00;;;19.40;48.80;;;;;;5048308;28;20488;-74
2021/03/17 09:38:02;;;;;;;1.10;1.00;;;19.40;49.00;;;;;;5054391;28;20486;-74
2021/03/17 09:40:32;;;;;;;2.20;1.33;;;19.50;49.30;;;;;;5051784;28;20494;-79
2021/03/17 09:42:58;;;;;;;0.87;0.70;;;19.60;48.40;;;;;;5051685;28;20490;-78
2021/03/17 09:45:25;;;;;;;16.20;2.13;;;19.60;49.50;;;;;;5041949;28;20481;-77
2021/03/17 09:47:55;;;;;;;8.97;3.57;;;19.70;62.60;;;;;;5068930;28;20483;-78
2021/03/17 09:50:21;;;;;;;4.40;2.70;;;19.80;81.40;;;;;;5056353;28;20895;-79
2021/03/17 09:52:48;;;;;;;6.17;3.10;;;20.10;90.80;;;;;;5048284;28;20936;-79
2021/03/17 09:55:30;;;;;;;8.57;4.13;;;20.40;94.40;;;;;;5067623;28;20878;-79
2021/03/17 09:58:04;;;;;;;13.30;3.63;;;20.70;98.10;;;;;;5050328;27;20481;-79
2021/03/17 10:00:30;;;;;;;12.40;3.80;;;20.90;99.90;;;;;;5070193;28;20893;-79
2021/03/17 10:02:58;;;;;;;10.03;3.57;;;21.20;99.90;;;;;;5047547;28;20487;-77
2021/03/17 10:05:24;;;;;;;24.23;4.70;;;21.30;99.90;;;;;;5041706;28;20870;-79
2021/03/17 10:07:51;;;;;;;10.00;3.80;;;21.40;99.90;;;;;;5061033;28;20489;-79
2021/03/17 10:10:18;;;;;;;8.30;3.70;;;21.60;99.90;;;;;;5046859;28;20480;-78
2021/03/17 10:12:46;;;;;;;10.10;3.73;;;21.60;99.90;;;;;;5063555;28;20478;-79
2021/03/17 10:15:14;;;;;;;14.83;3.93;;;21.70;99.90;;;;;;5060070;28;20492;-78
2021/03/17 10:17:40;;;;;;;17.33;3.77;;;21.50;97.50;;;;;;5050118;28;20909;-78
2021/03/17 10:20:08;;;;;;;28.13;4.87;;;21.40;94.50;;;;;;5069335;28;20497;-77
2021/03/17 10:22:34;;;;;;;28.10;4.20;;;21.40;98.20;;;;;;5038707;28;22393;-78
2021/03/17 10:25:05;;;;;;;24.60;5.00;;;21.50;99.40;;;;;;5071360;28;20474;-79
2021/03/17 10:27:32;;;;;;;27.87;5.37;;;21.60;96.40;;;;;;5017873;28;20492;-78
2021/03/17 10:30:00;;;;;;;22.43;7.80;;;21.50;89.10;;;;;;5058333;28;21576;-78
2021/03/17 10:32:26;;;;;;;28.03;5.73;;;21.30;90.20;;;;;;5042191;28;21200;-77
2021/03/17 10:34:52;;;;;;;16.10;5.33;;;21.30;92.70;;;;;;5053418;28;20488;-79
2021/03/17 10:37:20;;;;;;;11.47;4.17;;;21.50;86.30;;;;;;5060005;28;20500;-78
2021/03/17 10:39:46;;;;;;;14.70;3.70;;;21.30;80.50;;;;;;5074988;28;20470;-77
2021/03/17 10:42:20;;;;;;;11.70;3.80;;;21.20;74.70;;;;;;5041872;28;20474;-79
2021/03/17 10:44:59;;;;;;;9.50;3.63;;;21.00;74.50;;;;;;5046527;28;20483;-79
2021/03/17 10:47:26;;;;;;;8.13;3.13;;;20.70;71.00;;;;;;5022728;28;20494;-77
2021/03/17 10:49:52;;;;;;;5.80;2.73;;;20.60;70.00;;;;;;5038291;28;20482;-77
2021/03/17 10:52:18;;;;;;;6.73;2.50;;;20.50;65.40;;;;;;5026681;28;21000;-78
2021/03/17 10:54:45;;;;;;;2.57;1.63;;;20.40;63.20;;;;;;5035317;28;20607;-78
2021/03/17 10:57:19;;;;;;;9.80;2.47;;;20.30;66.60;;;;;;5038739;28;20496;-79
2021/03/17 10:59:45;;;;;;;4.40;1.77;;;20.20;63.20;;;;;;5030347;28;20494;-77
2021/03/17 11:02:22;;;;;;;5.60;2.10;;;20.20;64.10;;;;;;5036908;28;20577;-78
2021/03/17 11:05:13;;;;;;;4.87;1.90;;;20.10;63.50;;;;;;5043960;28;20490;-77
2021/03/17 11:08:07;;;;;;;8.97;2.77;;;20.00;61.70;;;;;;5063477;28;20476;-78
2021/03/17 11:10:41;;;;;;;5.67;1.67;;;20.00;61.30;;;;;;5040055;28;20477;-77
2021/03/17 11:13:34;;;;;;;3.87;1.57;;;20.00;59.90;;;;;;5011352;28;20492;-78
2021/03/17 11:16:02;;;;;;;4.03;1.70;;;20.00;58.50;;;;;;5043335;28;20494;-79
2021/03/17 11:18:29;;;;;;;4.17;2.60;;;19.90;56.50;;;;;;5037203;28;20492;-81
2021/03/17 11:20:57;;;;;;;2.57;1.67;;;19.70;54.70;;;;;;5044382;28;20898;-79
2021/03/17 11:23:24;;;;;;;7.43;2.03;;;19.30;54.60;;;;;;5047306;28;21033;-80
2021/03/17 11:25:50;;;;;;;6.13;1.67;;;19.40;54.60;;;;;;5046788;28;20474;-78
2021/03/17 11:28:18;;;;;;;4.73;2.17;;;19.40;51.00;;;;;;5050253;28;20494;-78
2021/03/17 11:30:46;;;;;;;3.60;1.70;;;19.30;53.90;;;;;;5050464;28;20509;-77
2021/03/17 11:33:13;;;;;;;6.70;2.37;;;19.30;50.60;;;;;;5052756;28;20489;-78
2021/03/17 11:35:40;;;;;;;3.53;1.83;;;19.50;50.80;;;;;;5044356;28;20496;-78
2021/03/17 11:38:06;;;;;;;6.43;1.70;;;19.50;52.00;;;;;;5049688;28;20490;-77
2021/03/17 11:40:32;;;;;;;1.23;1.00;;;19.50;50.80;;;;;;5052369;28;21126;-78
2021/03/17 11:43:05;;;;;;;2.43;1.00;;;19.50;51.20;;;;;;5040329;28;21001;-78
2021/03/17 11:45:31;;;;;;;2.77;1.47;;;19.50;50.80;;;;;;5050421;28;20573;-77
2021/03/17 11:47:58;;;;;;;2.60;1.27;;;19.60;50.90;;;;;;5045783;28;21007;-79
2021/03/17 11:50:24;;;;;;;1.93;1.40;;;19.60;51.40;;;;;;5052447;28;20481;-77
2021/03/17 11:52:51;;;;;;;1.97;1.77;;;19.60;51.70;;;;;;5052189;28;20496;-80
2021/03/17 11:55:18;;;;;;;3.23;1.70;;;19.60;52.70;;;;;;5038004;28;20485;-78
2021/03/17 11:57:44;;;;;;;2.77;1.20;;;19.60;52.60;;;;;;5049297;28;20531;-78
2021/03/17 12:00:11;;;;;;;1.27;1.00;;;19.70;52.80;;;;;;5048504;28;20934;-78
2021/03/17 12:02:37;;;;;;;1.13;1.00;;;19.70;52.40;;;;;;5050173;28;21069;-77
2021/03/17 12:05:06;;;;;;;3.60;1.00;;;19.80;52.30;;;;;;5035709;28;20474;-79
2021/03/17 12:07:32;;;;;;;2.40;1.47;;;19.80;52.30;;;;;;5032701;28;20845;-77
2021/03/17 12:09:58;;;;;;;2.20;1.07;;;19.80;52.10;;;;;;5055807;28;20512;-77
2021/03/17 12:12:24;;;;;;;1.33;0.83;;;19.80;51.80;;;;;;5044447;28;20484;-79
2021/03/17 12:14:50;;;;;;;1.17;0.90;;;19.80;51.90;;;;;;5063317;28;20530;-78
2021/03/17 12:17:16;;;;;;;1.17;1.03;;;19.80;51.80;;;;;;5054385;28;20527;-78
2021/03/17 12:19:43;;;;;;;4.07;1.00;;;19.80;51.80;;;;;;5038991;28;20495;-78
2021/03/17 12:22:10;;;;;;;1.47;1.13;;;19.80;51.60;;;;;;5038096;28;20484;-80
2021/03/17 12:24:36;;;;;;;1.87;1.27;;;19.80;51.20;;;;;;5034978;28;20478;-78
2021/03/17 12:27:02;;;;;;;5.50;1.17;;;19.80;50.60;;;;;;5050719;28;20482;-78
2021/03/17 12:29:28;;;;;;;1.00;1.00;;;19.70;50.10;;;;;;5032531;28;20477;-77
2021/03/17 12:31:54;;;;;;;0.80;0.80;;;19.80;50.10;;;;;;5069349;28;20482;-78
2021/03/17 12:34:20;;;;;;;4.60;1.37;;;19.80;50.00;;;;;;5049112;28;20496;-79
2021/03/17 12:36:47;;;;;;;1.10;1.00;;;19.80;49.70;;;;;;5052002;28;21448;-78
2021/03/17 12:39:14;;;;;;;1.03;0.93;;;19.80;49.80;;;;;;5063040;28;20542;-77
2021/03/17 12:41:41;;;;;;;0.80;0.80;;;19.80;49.90;;;;;;5046652;28;20531;-77
2021/03/17 12:44:07;;;;;;;2.13;1.10;;;19.80;49.80;;;;;;5034239;28;20842;-76
2021/03/17 12:46:35;;;;;;;0.70;0.70;;;19.80;50.00;;;;;;5048527;28;20645;-78
2021/03/17 12:49:01;;;;;;;4.40;1.00;;;19.80;49.90;;;;;;5052525;28;21162;-78
2021/03/17 12:51:27;;;;;;;4.63;1.00;;;19.80;50.00;;;;;;5050896;28;20538;-78